Time;durP1;ratioP1;P1;durP2;ratioP2;P2;SDS_P1;SDS_P2;PMS_P1;PMS_P2;Temp;Humidity;BMP_temperature;BMP_pressure;BME280_temperature;BME280_humidity;BME280_pressure;Samples;Min_cycle;Max_cycle;Signal;HPM_P1;HPM_P2
2021/11/13 00:01:05;;;;;;;;;;;;;;;6.23;68.82;100411.13;4437339;32;33501;-90
2021/11/13 00:03:33;;;;;;;;;;;;;;;6.17;69.17;100421.69;4437968;32;33405;-91
2021/11/13 00:06:00;;;;;;;;;;;;;;;6.40;68.73;100414.31;4424836;32;32989;-90
2021/11/13 00:08:28;;;;;;;;;;;;;;;6.88;66.66;100410.84;4438135;32;34286;-90
2021/11/13 00:10:56;;;;;;;;;;;;;;;6.64;67.47;100406.91;4424981;32;32681;-89
2021/11/13 00:13:24;;;;;;;;;;;;;;;6.57;67.82;100403.56;4437840;32;31870;-88
2021/11/13 00:15:52;;;;;;;;;;;;;;;6.62;67.68;100400.84;4424469;32;32684;-89
2021/11/13 00:18:20;;;;;;;;;;;;;;;6.78;66.89;100394.41;4419372;32;32793;-90
2021/11/13 00:20:48;;;;;;;;;;;;;;;6.45;68.19;100388.00;4398745;32;33247;-89
2021/11/13 00:23:15;;;;;;;;;;;;;;;6.63;67.15;100390.31;4412306;32;33254;-91
2021/11/13 00:26:02;;;;;;;;;;;;;;;6.89;66.42;100381.09;4411154;32;32788;-91
2021/11/13 00:28:42;;;;;;;;;;;;;;;6.26;68.91;100390.06;4413703;32;33439;-92
2021/11/13 00:31:33;;;;;;;;;;;;;;;6.73;67.41;100393.63;4372361;32;33665;-92
2021/11/13 00:38:05;;;;;;;;;;;;;;;6.63;67.79;100405.19;4390776;32;32502;-89
2021/11/13 00:40:44;;;;;;;;;;;;;;;6.53;68.18;100394.00;4399650;32;34194;-93
2021/11/13 00:43:27;;;;;;;;;;;;;;;6.45;68.66;100392.41;4396528;32;32984;-93
2021/11/13 00:46:17;;;;;;;;;;;;;;;6.58;68.49;100391.28;4393585;32;32527;-93
2021/11/13 00:48:57;;;;;;;;;;;;;;;6.21;69.75;100394.53;4411902;32;33565;-93
2021/11/13 00:51:48;;;;;;;;;;;;;;;6.31;69.37;100383.00;4430045;32;33512;-91
2021/11/13 00:54:27;;;;;;;;;;;;;;;6.56;68.52;100383.47;4407957;32;32942;-93
2021/11/13 00:57:18;;;;;;;;;;;;;;;6.58;68.56;100383.41;4392326;32;32823;-94
2021/11/13 00:59:57;;;;;;;;;;;;;;;6.19;69.62;100377.97;4383855;32;32786;-93
2021/11/13 01:02:49;;;;;;;;;;;;;;;6.48;68.65;100379.25;4406273;32;33781;-92
2021/11/13 01:05:29;;;;;;;;;;;;;;;6.58;68.55;100371.16;4379134;32;33028;-90
2021/11/13 01:08:16;;;;;;;;;;;;;;;6.26;70.20;100368.25;4369256;32;31891;-93
2021/11/13 01:10:56;;;;;;;;;;;;;;;6.25;70.13;100371.75;4393647;32;32906;-93
2021/11/13 01:13:46;;;;;;;;;;;;;;;6.20;70.28;100363.97;4377326;32;32870;-93
2021/11/13 01:16:26;;;;;;;;;;;;;;;5.88;70.87;100365.31;4400333;32;33348;-93
2021/11/13 01:19:18;;;;;;;;;;;;;;;6.06;70.78;100356.31;4387359;32;31192;-91
2021/11/13 01:21:57;;;;;;;;;;;;;;;6.24;69.80;100339.44;4391967;32;32801;-93
2021/11/13 01:24:48;;;;;;;;;;;;;;;5.74;71.42;100351.56;4391212;32;33978;-93
2021/11/13 01:27:28;;;;;;;;;;;;;;;5.57;72.09;100361.44;4393423;32;32836;-94
2021/11/13 01:30:18;;;;;;;;;;;;;;;5.70;72.04;100363.00;4371946;32;32395;-90
2021/11/13 01:37:03;;;;;;;;;;;;;;;5.93;71.22;100339.06;4365155;32;35129;-90
2021/11/13 01:39:31;;;;;;;;;;;;;;;5.71;72.01;100342.91;4363753;32;34295;-90
2021/11/13 01:41:59;;;;;;;;;;;;;;;5.42;72.70;100332.84;4375086;32;31871;-89
2021/11/13 01:44:30;;;;;;;;;;;;;;;5.65;72.31;100338.63;4363791;32;33336;-90
2021/11/13 01:46:58;;;;;;;;;;;;;;;5.12;73.52;100329.75;4376040;32;33077;-90
2021/11/13 01:49:25;;;;;;;;;;;;;;;5.49;72.77;100331.84;4376076;32;33611;-89
2021/11/13 01:51:52;;;;;;;;;;;;;;;5.45;72.53;100327.56;4376498;32;31990;-92
2021/11/13 01:58:44;;;;;;;;;;;;;;;5.49;72.51;100337.97;4410765;32;34957;-91
2021/11/13 02:01:38;;;;;;;;;;;;;;;5.51;72.64;100340.59;4420213;32;32702;-91
2021/11/13 02:04:29;;;;;;;;;;;;;;;5.64;72.22;100342.09;4392236;32;31564;-90
2021/11/13 02:07:22;;;;;;;;;;;;;;;5.14;73.63;100348.94;4370334;32;33481;-91
2021/11/13 02:10:14;;;;;;;;;;;;;;;4.93;73.92;100349.19;4377349;32;33062;-91
2021/11/13 02:12:54;;;;;;;;;;;;;;;5.19;73.47;100349.72;4370706;32;33345;-92
2021/11/13 02:15:44;;;;;;;;;;;;;;;5.56;71.79;100344.84;4376574;32;32858;-92
2021/11/13 02:18:24;;;;;;;;;;;;;;;4.85;74.38;100344.91;4365358;32;33311;-91
2021/11/13 02:21:14;;;;;;;;;;;;;;;5.07;73.82;100344.63;4377239;32;33018;-95
2021/11/13 02:23:54;;;;;;;;;;;;;;;5.53;72.29;100351.88;4393567;32;34055;-92
2021/11/13 02:26:44;;;;;;;;;;;;;;;5.61;71.61;100350.03;4367616;32;31519;-90
2021/11/13 02:29:12;;;;;;;;;;;;;;;5.29;72.18;100350.47;4360617;32;32258;-90
2021/11/13 02:31:41;;;;;;;;;;;;;;;5.78;70.63;100350.62;4372879;32;33875;-90
2021/11/13 02:34:10;;;;;;;;;;;;;;;5.70;70.37;100347.28;4369309;32;33640;-90
2021/11/13 02:36:38;;;;;;;;;;;;;;;5.86;70.24;100338.28;4377923;32;33488;-90
2021/11/13 02:39:09;;;;;;;;;;;;;;;5.90;69.84;100341.72;4382663;32;33316;-90
2021/11/13 02:41:37;;;;;;;;;;;;;;;5.93;69.96;100346.06;4375927;32;33903;-91
2021/11/13 02:44:45;;;;;;;;;;;;;;;5.65;70.88;100336.00;4390239;32;34666;-90
2021/11/13 02:47:12;;;;;;;;;;;;;;;5.83;70.20;100333.06;4389679;32;32116;-91
2021/11/13 02:49:42;;;;;;;;;;;;;;;5.89;70.16;100335.63;4392310;32;32762;-90
2021/11/13 02:52:10;;;;;;;;;;;;;;;5.84;69.87;100326.97;4394182;32;33508;-90
2021/11/13 02:54:47;;;;;;;;;;;;;;;6.13;69.03;100321.28;4371844;32;33408;-90
2021/11/13 02:57:18;;;;;;;;;;;;;;;5.87;69.96;100324.28;4393964;32;32214;-91
2021/11/13 02:59:46;;;;;;;;;;;;;;;5.66;70.89;100324.63;4388590;32;33302;-92
2021/11/13 03:02:37;;;;;;;;;;;;;;;5.87;70.59;100324.28;4380643;32;33121;-93
2021/11/13 03:05:21;;;;;;;;;;;;;;;6.30;68.52;100313.09;4393208;32;33785;-93
2021/11/13 03:08:12;;;;;;;;;;;;;;;6.04;69.21;100310.94;4340902;32;32237;-93
2021/11/13 03:10:53;;;;;;;;;;;;;;;6.09;69.59;100316.97;4407216;32;33283;-94
2021/11/13 03:13:45;;;;;;;;;;;;;;;5.82;70.38;100309.53;4390519;32;32989;-92
2021/11/13 03:16:24;;;;;;;;;;;;;;;6.07;69.91;100315.25;4417673;32;33846;-91
2021/11/13 03:18:52;;;;;;;;;;;;;;;6.26;69.07;100311.41;4395812;32;32432;-90
2021/11/13 03:21:32;;;;;;;;;;;;;;;6.13;69.45;100310.78;4359954;32;33093;-93
2021/11/13 03:24:22;;;;;;;;;;;;;;;6.37;68.49;100304.22;4417187;32;32698;-96
2021/11/13 03:27:02;;;;;;;;;;;;;;;6.62;67.68;100306.38;4408326;32;33495;-95
2021/11/13 03:29:55;;;;;;;;;;;;;;;6.49;68.26;100305.75;4390607;32;32137;-95
2021/11/13 03:32:34;;;;;;;;;;;;;;;6.44;68.35;100298.84;4336671;33;33996;-96
2021/11/13 03:35:30;;;;;;;;;;;;;;;6.67;67.51;100301.91;4352967;32;33014;-92
2021/11/13 03:38:12;;;;;;;;;;;;;;;6.16;69.02;100304.59;4393422;32;33401;-96
2021/11/13 03:40:53;;;;;;;;;;;;;;;6.32;69.35;100308.69;4417420;32;34020;-93
2021/11/13 03:43:45;;;;;;;;;;;;;;;6.48;68.57;100305.78;4364579;32;32649;-93
2021/11/13 03:50:26;;;;;;;;;;;;;;;6.14;69.58;100306.41;4410944;32;35748;-95
2021/11/13 03:53:17;;;;;;;;;;;;;;;6.09;69.93;100311.72;4390230;32;32190;-92
2021/11/13 03:55:57;;;;;;;;;;;;;;;6.53;68.79;100301.31;4375633;32;33227;-94
2021/11/13 03:58:50;;;;;;;;;;;;;;;6.76;67.82;100298.25;4423222;32;34758;-95
2021/11/13 04:01:30;;;;;;;;;;;;;;;6.53;68.49;100293.44;4421693;32;33747;-94
2021/11/13 04:04:20;;;;;;;;;;;;;;;6.70;68.32;100299.22;4402325;32;32989;-93
2021/11/13 04:07:00;;;;;;;;;;;;;;;6.73;68.12;100295.66;4367741;32;33261;-92
2021/11/13 04:09:50;;;;;;;;;;;;;;;6.82;67.80;100290.22;4380314;32;33259;-91
2021/11/13 04:12:30;;;;;;;;;;;;;;;6.84;67.66;100294.56;4423117;32;33008;-91
2021/11/13 04:15:10;;;;;;;;;;;;;;;6.78;67.96;100284.16;4425234;32;32211;-91
2021/11/13 04:17:50;;;;;;;;;;;;;;;7.02;66.98;100285.41;4415598;32;33918;-91
2021/11/13 04:21:00;;;;;;;;;;;;;;;6.66;68.49;100287.06;4414700;32;33042;-93
2021/11/13 04:23:53;;;;;;;;;;;;;;;6.56;68.65;100282.91;4413420;32;34227;-92
2021/11/13 04:26:44;;;;;;;;;;;;;;;6.45;69.51;100285.69;4384400;32;31910;-93
2021/11/13 04:29:24;;;;;;;;;;;;;;;6.49;69.58;100283.91;4404585;32;32865;-95
2021/11/13 04:39:08;;;;;;;;;;;;;;;6.62;69.43;100288.88;4411455;32;32639;-91
2021/11/13 04:41:47;;;;;;;;;;;;;;;6.50;69.68;100288.25;4375066;32;32682;-91
2021/11/13 04:44:38;;;;;;;;;;;;;;;6.71;69.21;100297.47;4400908;32;32656;-94
2021/11/13 04:47:19;;;;;;;;;;;;;;;6.39;69.86;100286.69;4432302;32;32632;-95
2021/11/13 04:50:12;;;;;;;;;;;;;;;6.01;71.15;100290.00;4361986;32;31864;-94
2021/11/13 04:52:52;;;;;;;;;;;;;;;6.04;71.40;100294.34;4382241;32;34253;-93
2021/11/13 04:55:43;;;;;;;;;;;;;;;6.35;70.60;100285.00;4396767;32;33010;-95
2021/11/13 04:58:23;;;;;;;;;;;;;;;6.29;70.53;100290.38;4386666;32;32930;-92
2021/11/13 05:01:14;;;;;;;;;;;;;;;6.45;70.01;100288.31;4400394;32;32836;-95
2021/11/13 05:03:53;;;;;;;;;;;;;;;6.38;70.08;100284.97;4406565;32;32829;-95
2021/11/13 05:06:43;;;;;;;;;;;;;;;6.22;71.11;100278.28;4341130;32;32898;-95
2021/11/13 05:09:23;;;;;;;;;;;;;;;6.28;70.64;100280.78;4387607;32;33305;-93
2021/11/13 05:12:13;;;;;;;;;;;;;;;6.40;70.50;100285.78;4396518;32;31983;-94
2021/11/13 05:14:53;;;;;;;;;;;;;;;6.51;70.04;100282.13;4356860;32;32627;-94
2021/11/13 05:17:45;;;;;;;;;;;;;;;6.58;69.56;100278.47;4370762;32;33861;-90
2021/11/13 05:20:24;;;;;;;;;;;;;;;6.69;68.99;100286.97;4370893;32;32576;-89
2021/11/13 05:23:04;;;;;;;;;;;;;;;6.81;68.70;100284.13;4391652;32;32556;-90
2021/11/13 05:25:44;;;;;;;;;;;;;;;6.59;69.34;100286.31;4395996;32;32694;-92
2021/11/13 05:28:25;;;;;;;;;;;;;;;6.47;69.76;100290.94;4407705;32;33375;-94
2021/11/13 05:31:16;;;;;;;;;;;;;;;6.44;69.99;100293.63;4386207;32;33492;-88
2021/11/13 05:33:44;;;;;;;;;;;;;;;6.44;69.69;100289.22;4378815;32;33142;-88
2021/11/13 05:36:12;;;;;;;;;;;;;;;6.55;69.49;100294.25;4390615;32;33777;-90
2021/11/13 05:38:39;;;;;;;;;;;;;;;6.00;71.03;100290.03;4382654;32;33346;-89
2021/11/13 05:41:06;;;;;;;;;;;;;;;5.61;72.84;100295.03;4379349;32;33034;-90
2021/11/13 05:43:34;;;;;;;;;;;;;;;6.06;71.52;100303.03;4378666;32;31617;-90
2021/11/13 05:46:02;;;;;;;;;;;;;;;6.33;70.35;100292.06;4388637;32;33394;-91
2021/11/13 05:48:29;;;;;;;;;;;;;;;6.52;69.50;100292.56;4379556;32;33137;-91
2021/11/13 05:50:57;;;;;;;;;;;;;;;6.38;69.78;100294.59;4393931;32;33326;-91
2021/11/13 05:53:44;;;;;;;;;;;;;;;6.22;70.57;100304.50;4392561;32;32167;-90
2021/11/13 05:56:12;;;;;;;;;;;;;;;5.92;71.48;100299.78;4378992;32;33801;-91
2021/11/13 05:58:58;;;;;;;;;;;;;;;6.24;70.62;100304.47;4381273;32;34123;-90
2021/11/13 06:01:28;;;;;;;;;;;;;;;5.91;71.69;100304.13;4379395;32;33398;-95
2021/11/13 06:04:19;;;;;;;;;;;;;;;5.96;71.82;100312.81;4371249;32;31729;-93
2021/11/13 06:06:59;;;;;;;;;;;;;;;6.15;71.57;100313.38;4411382;32;34024;-94
2021/11/13 06:09:50;;;;;;;;;;;;;;;6.56;70.32;100310.00;4397988;32;32605;-93
2021/11/13 06:12:30;;;;;;;;;;;;;;;6.30;70.35;100318.34;4432909;32;33157;-92
2021/11/13 06:15:21;;;;;;;;;;;;;;;6.24;70.40;100321.06;4402558;32;32469;-91
2021/11/13 06:18:00;;;;;;;;;;;;;;;6.02;71.57;100319.69;4405374;32;33751;-93
2021/11/13 06:20:50;;;;;;;;;;;;;;;5.96;71.85;100320.69;4390604;32;32845;-94
2021/11/13 06:23:30;;;;;;;;;;;;;;;6.65;69.51;100316.84;4389035;32;32564;-92
2021/11/13 06:26:20;;;;;;;;;;;;;;;6.65;69.42;100325.56;4391921;32;31236;-93
2021/11/13 06:29:13;;;;;;;;;;;;;;;6.68;69.12;100335.13;4418704;32;32956;-91
2021/11/13 06:31:41;;;;;;;;;;;;;;;6.43;69.85;100339.97;4406833;32;33198;-90
2021/11/13 06:34:08;;;;;;;;;;;;;;;6.48;70.27;100342.50;4397691;32;32795;-94
2021/11/13 06:36:58;;;;;;;;;;;;;;;6.70;69.64;100341.22;4412469;32;32635;-94
2021/11/13 06:39:38;;;;;;;;;;;;;;;6.75;69.49;100338.50;4405719;32;32848;-91
2021/11/13 06:42:41;;;;;;;;;;;;;;;6.90;68.96;100346.06;4387280;32;33165;-93
2021/11/13 06:45:20;;;;;;;;;;;;;;;6.87;69.23;100347.00;4391501;32;34935;-91
2021/11/13 06:47:50;;;;;;;;;;;;;;;7.04;68.26;100344.03;4393266;32;31854;-90
2021/11/13 06:50:25;;;;;;;;;;;;;;;6.76;69.32;100353.34;4393328;32;33404;-90
2021/11/13 06:57:01;;;;;;;;;;;;;;;7.27;67.00;100351.44;4394653;32;35014;-91
2021/11/13 06:59:29;;;;;;;;;;;;;;;7.20;67.72;100355.06;4393135;32;31755;-91
2021/11/13 07:01:56;;;;;;;;;;;;;;;7.39;66.70;100356.41;4380334;32;32840;-90
2021/11/13 07:04:24;;;;;;;;;;;;;;;6.86;68.53;100358.38;4380067;32;33499;-90
2021/11/13 07:06:52;;;;;;;;;;;;;;;6.93;68.67;100357.38;4367917;32;33178;-90
2021/11/13 07:09:19;;;;;;;;;;;;;;;7.30;67.56;100361.84;4380301;32;31900;-87
2021/11/13 07:11:46;;;;;;;;;;;;;;;7.53;66.73;100365.75;4393038;32;33160;-89
2021/11/13 07:14:14;;;;;;;;;;;;;;;7.23;67.85;100368.16;4392987;32;34007;-87
2021/11/13 07:16:42;;;;;;;;;;;;;;;7.35;67.43;100370.50;4380190;32;33027;-88
2021/11/13 07:19:10;;;;;;;;;;;;;;;7.19;68.02;100374.38;4393000;32;32056;-88
2021/11/13 07:21:39;;;;;;;;;;;;;;;7.22;67.96;100366.44;4394493;32;33591;-89
2021/11/13 07:24:26;;;;;;;;;;;;;;;7.20;67.94;100370.84;4382185;32;33131;-90
2021/11/13 07:26:56;;;;;;;;;;;;;;;7.40;67.16;100363.38;4394660;32;32695;-89
2021/11/13 07:29:45;;;;;;;;;;;;;;;7.24;67.77;100363.75;4393611;32;32126;-88
2021/11/13 07:32:17;;;;;;;;;;;;;;;7.11;67.66;100371.03;4381625;32;33224;-89
2021/11/13 07:34:47;;;;;;;;;;;;;;;7.29;67.50;100368.00;4380964;32;33059;-87
2021/11/13 07:37:14;;;;;;;;;;;;;;;7.18;67.47;100373.50;4392400;32;32726;-87
2021/11/13 07:39:42;;;;;;;;;;;;;;;6.99;68.01;100380.03;4378866;32;32671;-86
2021/11/13 07:42:10;;;;;;;;;;;;;;;6.79;68.57;100374.28;4392527;32;33018;-86
2021/11/13 07:44:38;;;;;;;;;;;;;;;6.93;68.47;100373.13;4408852;32;33113;-85
2021/11/13 07:47:06;;;;;;;;;;;;;;;7.09;68.04;100371.06;4424930;32;33838;-84
2021/11/13 07:49:34;;;;;;;;;;;;;;;7.09;68.24;100372.81;4409180;32;32174;-84
2021/11/13 07:52:01;;;;;;;;;;;;;;;7.01;68.29;100369.47;4407463;32;32955;-84
2021/11/13 07:54:29;;;;;;;;;;;;;;;7.05;68.39;100369.37;4414785;32;33116;-84
2021/11/13 07:56:56;;;;;;;;;;;;;;;7.00;68.98;100368.63;4392471;32;33955;-84
2021/11/13 07:59:23;;;;;;;;;;;;;;;7.50;66.89;100369.34;4396130;32;33482;-86
2021/11/13 08:01:51;;;;;;;;;;;;;;;7.22;68.06;100368.19;4421251;32;33045;-86
2021/11/13 08:04:18;;;;;;;;;;;;;;;7.50;67.12;100366.72;4406882;32;33833;-86
2021/11/13 08:06:46;;;;;;;;;;;;;;;7.47;66.96;100363.28;4407116;32;33120;-86
2021/11/13 08:09:13;;;;;;;;;;;;;;;7.51;67.37;100365.81;4394094;32;32881;-86
2021/11/13 08:11:41;;;;;;;;;;;;;;;7.11;69.00;100378.91;4406657;32;33023;-86
2021/11/13 08:14:08;;;;;;;;;;;;;;;7.27;68.51;100367.19;4407063;32;32682;-86
2021/11/13 08:16:36;;;;;;;;;;;;;;;7.48;67.94;100349.22;4394084;32;33298;-86
2021/11/13 08:19:04;;;;;;;;;;;;;;;7.35;68.20;100354.75;4407032;32;32859;-86
2021/11/13 08:21:31;;;;;;;;;;;;;;;7.54;67.54;100352.56;4407055;32;34759;-86
2021/11/13 08:23:59;;;;;;;;;;;;;;;7.36;68.06;100360.88;4419574;32;33050;-86
2021/11/13 08:26:26;;;;;;;;;;;;;;;7.32;68.99;100360.09;4406686;32;32992;-85
2021/11/13 08:28:54;;;;;;;;;;;;;;;7.23;69.18;100356.78;4406835;32;33303;-86
2021/11/13 08:31:21;;;;;;;;;;;;;;;7.81;66.88;100353.72;4406518;32;33859;-88
2021/11/13 08:33:49;;;;;;;;;;;;;;;7.52;67.98;100353.53;4406810;32;33379;-86
2021/11/13 08:36:16;;;;;;;;;;;;;;;7.48;67.79;100346.59;4394171;32;32778;-86
2021/11/13 08:38:43;;;;;;;;;;;;;;;7.30;68.95;100346.09;4406314;32;32429;-86
2021/11/13 08:41:11;;;;;;;;;;;;;;;7.24;69.49;100345.37;4419420;32;34042;-86
2021/11/13 08:43:38;;;;;;;;;;;;;;;7.24;69.41;100348.00;4410212;32;34982;-86
2021/11/13 08:46:06;;;;;;;;;;;;;;;7.30;69.28;100345.25;4409346;32;33390;-86
2021/11/13 08:48:34;;;;;;;;;;;;;;;7.29;69.67;100354.03;4409324;32;32614;-87
2021/11/13 08:51:01;;;;;;;;;;;;;;;7.32;70.37;100348.72;4410514;32;34528;-85
2021/11/13 08:53:31;;;;;;;;;;;;;;;7.52;69.82;100356.16;4400418;32;32956;-84
2021/11/13 08:55:59;;;;;;;;;;;;;;;7.44;69.17;100349.28;4396163;32;33305;-90
2021/11/13 08:58:26;;;;;;;;;;;;;;;7.72;67.91;100353.94;4396167;32;32390;-87
2021/11/13 09:01:01;;;;;;;;;;;;;;;7.18;69.64;100351.63;4408906;32;33694;-88
2021/11/13 09:03:34;;;;;;;;;;;;;;;7.23;69.94;100349.78;4401152;32;33540;-89
2021/11/13 09:06:02;;;;;;;;;;;;;;;7.21;69.67;100356.78;4383524;32;33314;-88
2021/11/13 09:08:34;;;;;;;;;;;;;;;7.38;69.67;100354.69;4396241;32;32719;-88
2021/11/13 09:11:01;;;;;;;;;;;;;;;7.77;67.69;100351.19;4383252;32;33251;-89
2021/11/13 09:13:29;;;;;;;;;;;;;;;7.75;67.86;100348.59;4395685;32;33855;-89
2021/11/13 09:15:58;;;;;;;;;;;;;;;7.51;68.65;100354.44;4383406;32;33147;-89
2021/11/13 09:18:25;;;;;;;;;;;;;;;6.95;71.06;100353.84;4383495;32;31790;-88
2021/11/13 09:20:53;;;;;;;;;;;;;;;7.25;69.92;100357.59;4383300;32;33001;-89
2021/11/13 09:23:20;;;;;;;;;;;;;;;7.35;69.69;100360.00;4371178;32;32754;-89
2021/11/13 09:25:48;;;;;;;;;;;;;;;7.58;69.01;100367.38;4383251;32;33018;-89
2021/11/13 09:28:15;;;;;;;;;;;;;;;7.55;69.11;100362.22;4383503;32;32818;-88
2021/11/13 09:30:43;;;;;;;;;;;;;;;7.76;68.65;100365.25;4383495;32;32799;-89
2021/11/13 09:37:11;;;;;;;;;;;;;;;7.81;67.71;100356.34;4409834;32;35114;-89
2021/11/13 09:39:39;;;;;;;;;;;;;;;7.53;69.13;100357.88;4383276;32;32248;-89
2021/11/13 09:42:06;;;;;;;;;;;;;;;7.37;69.75;100354.72;4396007;32;33252;-89
2021/11/13 09:44:33;;;;;;;;;;;;;;;6.83;71.44;100353.19;4382988;32;34323;-89
2021/11/13 09:47:03;;;;;;;;;;;;;;;7.36;69.97;100350.38;4382990;32;32637;-90
2021/11/13 09:49:30;;;;;;;;;;;;;;;7.18;70.29;100346.38;4383505;32;33010;-89
2021/11/13 09:51:58;;;;;;;;;;;;;;;6.97;70.84;100346.81;4383134;32;34472;-90
2021/11/13 09:54:26;;;;;;;;;;;;;;;7.37;70.04;100352.97;4395931;32;33385;-89
2021/11/13 09:56:54;;;;;;;;;;;;;;;7.61;68.58;100351.56;4383343;32;32675;-90
2021/11/13 09:59:22;;;;;;;;;;;;;;;7.27;69.55;100351.44;4383174;32;33125;-89
2021/11/13 10:01:49;;;;;;;;;;;;;;;7.07;70.97;100346.56;4382923;32;32537;-88
2021/11/13 10:04:17;;;;;;;;;;;;;;;7.42;69.79;100350.22;4385880;32;33069;-89
2021/11/13 10:06:45;;;;;;;;;;;;;;;7.12;70.71;100349.09;4397914;32;33342;-89
2021/11/13 10:09:12;;;;;;;;;;;;;;;7.07;71.56;100353.59;4423731;32;32014;-89
2021/11/13 10:11:41;;;;;;;;;;;;;;;7.07;71.58;100349.19;4398269;32;32790;-89
2021/11/13 10:14:10;;;;;;;;;;;;;;;7.21;70.79;100338.41;4410991;32;34444;-89
2021/11/13 10:16:38;;;;;;;;;;;;;;;7.04;71.60;100333.53;4398411;32;33374;-89
2021/11/13 10:19:08;;;;;;;;;;;;;;;7.51;69.70;100322.91;4398323;32;32434;-90
2021/11/13 10:21:37;;;;;;;;;;;;;;;7.04;71.13;100320.41;4411040;32;33144;-89
2021/11/13 10:24:04;;;;;;;;;;;;;;;7.32;70.11;100318.06;4410784;32;33099;-88
2021/11/13 10:26:32;;;;;;;;;;;;;;;7.01;71.91;100315.22;4410921;32;33013;-90
2021/11/13 10:29:38;;;;;;;;;;;;;;;7.06;71.33;100312.47;4405673;32;32380;-88
2021/11/13 10:32:08;;;;;;;;;;;;;;;7.05;71.44;100305.50;4405472;32;34174;-87
2021/11/13 10:34:44;;;;;;;;;;;;;;;7.16;70.98;100300.88;4392307;32;33075;-88
2021/11/13 10:37:18;;;;;;;;;;;;;;;7.04;71.52;100309.03;4392555;32;32810;-88
2021/11/13 10:39:46;;;;;;;;;;;;;;;7.04;71.70;100307.28;4392943;32;31706;-88
2021/11/13 10:42:16;;;;;;;;;;;;;;;7.23;71.33;100297.25;4393181;32;34184;-89
2021/11/13 10:44:48;;;;;;;;;;;;;;;7.62;69.64;100291.97;4380059;32;32722;-88
2021/11/13 10:47:17;;;;;;;;;;;;;;;7.05;71.42;100298.50;4392743;32;34063;-88
2021/11/13 10:49:45;;;;;;;;;;;;;;;6.97;72.42;100294.28;4392724;32;32990;-88
2021/11/13 10:52:12;;;;;;;;;;;;;;;7.12;71.96;100294.84;4392656;32;34259;-88
2021/11/13 10:54:41;;;;;;;;;;;;;;;6.95;72.48;100294.34;4380145;32;32961;-88
2021/11/13 10:57:09;;;;;;;;;;;;;;;7.17;71.93;100292.13;4405368;32;34230;-88
2021/11/13 10:59:41;;;;;;;;;;;;;;;7.02;72.15;100293.28;4380277;32;32016;-88
2021/11/13 11:02:13;;;;;;;;;;;;;;;7.31;71.10;100283.91;4380096;32;32932;-89
2021/11/13 11:04:41;;;;;;;;;;;;;;;7.43;70.74;100289.75;4392384;32;33573;-88
2021/11/13 11:07:15;;;;;;;;;;;;;;;7.03;72.22;100286.31;4380247;32;33485;-88
2021/11/13 11:09:45;;;;;;;;;;;;;;;7.31;71.21;100287.44;4392894;32;32097;-88
2021/11/13 11:12:14;;;;;;;;;;;;;;;7.43;71.07;100281.03;4392568;32;33039;-88
2021/11/13 11:14:43;;;;;;;;;;;;;;;7.38;71.03;100278.50;4392569;32;34786;-88
2021/11/13 11:17:13;;;;;;;;;;;;;;;7.56;70.43;100276.34;4392482;32;32830;-88
2021/11/13 11:19:42;;;;;;;;;;;;;;;7.75;69.65;100267.13;4392272;32;31976;-88
2021/11/13 11:22:10;;;;;;;;;;;;;;;7.40;71.15;100266.19;4380036;32;33271;-89
2021/11/13 11:24:45;;;;;;;;;;;;;;;7.33;71.12;100269.84;4392385;32;33454;-89
2021/11/13 11:27:17;;;;;;;;;;;;;;;7.67;70.08;100254.16;4392370;32;33272;-89
2021/11/13 11:29:55;;;;;;;;;;;;;;;7.58;70.11;100264.88;4379908;32;32859;-88
2021/11/13 11:32:29;;;;;;;;;;;;;;;7.13;71.39;100264.19;4379841;32;33472;-89
2021/11/13 11:34:57;;;;;;;;;;;;;;;7.08;71.68;100272.19;4400709;32;32796;-89
2021/11/13 11:37:26;;;;;;;;;;;;;;;7.45;70.30;100258.19;4390959;32;34476;-90
2021/11/13 11:39:55;;;;;;;;;;;;;;;7.25;71.37;100263.06;4389990;32;33257;-89
2021/11/13 11:42:24;;;;;;;;;;;;;;;7.53;70.33;100268.53;4410314;32;32852;-89
2021/11/13 11:44:52;;;;;;;;;;;;;;;7.32;71.05;100259.41;4390154;32;33070;-90
2021/11/13 11:47:20;;;;;;;;;;;;;;;6.60;73.64;100274.94;4380862;32;32828;-90
2021/11/13 11:49:48;;;;;;;;;;;;;;;6.90;72.77;100267.31;4386039;32;32476;-90
2021/11/13 11:52:17;;;;;;;;;;;;;;;6.97;72.66;100274.16;4395889;32;33015;-89
2021/11/13 11:54:45;;;;;;;;;;;;;;;6.92;72.96;100266.38;4394843;32;33122;-90
2021/11/13 11:57:13;;;;;;;;;;;;;;;6.77;73.94;100273.72;4414051;32;35405;-90
2021/11/13 11:59:42;;;;;;;;;;;;;;;6.78;73.40;100271.03;4386589;32;34418;-89
2021/11/13 12:02:16;;;;;;;;;;;;;;;6.84;73.45;100263.06;4387430;32;33174;-88
2021/11/13 12:04:45;;;;;;;;;;;;;;;7.11;72.53;100272.09;4409997;32;33712;-89
2021/11/13 12:07:26;;;;;;;;;;;;;;;7.29;71.90;100270.81;4397099;32;32727;-89
2021/11/13 12:09:57;;;;;;;;;;;;;;;7.32;71.68;100260.25;4397331;32;32900;-89
2021/11/13 12:12:25;;;;;;;;;;;;;;;7.31;71.73;100261.16;4394812;32;32904;-90
2021/11/13 12:14:53;;;;;;;;;;;;;;;7.54;70.88;100254.47;4382025;32;33507;-90
2021/11/13 12:17:34;;;;;;;;;;;;;;;7.27;71.27;100254.25;4382037;32;32441;-89
2021/11/13 12:20:05;;;;;;;;;;;;;;;6.91;73.37;100256.78;4387275;32;32686;-90
2021/11/13 12:22:42;;;;;;;;;;;;;;;6.84;73.78;100255.19;4407230;32;33219;-89
2021/11/13 12:25:13;;;;;;;;;;;;;;;6.67;74.52;100252.91;4417042;32;33406;-90
2021/11/13 12:27:41;;;;;;;;;;;;;;;6.75;74.52;100263.25;4384188;32;33040;-89
2021/11/13 12:30:09;;;;;;;;;;;;;;;7.03;73.20;100257.44;4409530;32;31570;-90
2021/11/13 12:32:40;;;;;;;;;;;;;;;6.76;74.48;100254.47;4424169;32;33677;-90
2021/11/13 12:35:13;;;;;;;;;;;;;;;7.09;73.10;100236.28;4406225;32;35057;-89
2021/11/13 12:37:40;;;;;;;;;;;;;;;7.03;73.13;100233.81;4395948;32;33061;-89
2021/11/13 12:40:08;;;;;;;;;;;;;;;6.74;74.41;100237.91;4396033;32;32386;-90
2021/11/13 12:42:38;;;;;;;;;;;;;;;6.50;75.44;100238.41;4424287;32;32953;-90
2021/11/13 12:45:08;;;;;;;;;;;;;;;6.49;75.52;100231.44;4398788;32;32595;-90
2021/11/13 12:47:37;;;;;;;;;;;;;;;7.08;73.72;100232.78;4405599;32;33911;-90
2021/11/13 12:50:18;;;;;;;;;;;;;;;7.04;73.37;100239.00;4396363;32;32246;-90
2021/11/13 12:52:51;;;;;;;;;;;;;;;7.05;73.17;100240.72;4411069;32;32789;-90
2021/11/13 12:55:27;;;;;;;;;;;;;;;7.52;71.95;100237.91;4401727;32;33402;-88
2021/11/13 12:57:58;;;;;;;;;;;;;;;7.19;72.67;100243.03;4408803;32;33212;-89
2021/11/13 13:00:46;;;;;;;;;;;;;;;7.33;72.22;100238.34;4408802;32;33596;-88
2021/11/13 13:03:27;;;;;;;;;;;;;;;7.39;72.30;100232.94;4383961;32;34056;-88
2021/11/13 13:06:02;;;;;;;;;;;;;;;7.62;70.91;100236.78;4383741;32;32798;-88
2021/11/13 13:08:29;;;;;;;;;;;;;;;7.18;72.54;100228.19;4383968;32;33049;-88
2021/11/13 13:11:01;;;;;;;;;;;;;;;7.36;72.19;100232.16;4370882;32;33340;-88
2021/11/13 13:13:28;;;;;;;;;;;;;;;7.51;71.43;100226.53;4371108;32;33681;-88
2021/11/13 13:16:01;;;;;;;;;;;;;;;7.42;71.26;100225.00;4396478;32;32966;-88
2021/11/13 13:18:29;;;;;;;;;;;;;;;7.00;72.91;100226.84;4383737;32;34037;-88
2021/11/13 13:20:56;;;;;;;;;;;;;;;6.86;73.43;100228.91;4395916;32;32052;-88
2021/11/13 13:23:25;;;;;;;;;;;;;;;6.69;74.33;100237.13;4383750;32;33611;-89
2021/11/13 13:26:00;;;;;;;;;;;;;;;6.68;74.64;100232.78;4383553;32;33367;-89
2021/11/13 13:28:29;;;;;;;;;;;;;;;6.80;74.25;100229.91;4371160;32;34201;-88
2021/11/13 13:30:57;;;;;;;;;;;;;;;7.17;72.41;100227.34;4383694;32;32442;-88
2021/11/13 13:33:24;;;;;;;;;;;;;;;7.29;71.98;100228.78;4396074;32;32858;-88
2021/11/13 13:35:53;;;;;;;;;;;;;;;7.42;71.30;100225.00;4371208;32;32722;-88
2021/11/13 13:38:21;;;;;;;;;;;;;;;7.12;72.74;100234.44;4383141;32;34998;-88
2021/11/13 13:40:50;;;;;;;;;;;;;;;7.13;72.72;100238.81;4383694;32;32138;-89
2021/11/13 13:43:24;;;;;;;;;;;;;;;7.41;71.63;100233.78;4396172;32;32515;-89
2021/11/13 13:46:01;;;;;;;;;;;;;;;7.01;72.80;100228.56;4395832;32;33589;-88
2021/11/13 13:48:36;;;;;;;;;;;;;;;7.23;72.33;100226.31;4395795;32;33228;-89
2021/11/13 13:51:05;;;;;;;;;;;;;;;7.11;72.56;100224.81;4383953;32;33539;-88
2021/11/13 13:53:46;;;;;;;;;;;;;;;6.88;73.54;100233.25;4395880;32;34347;-88
2021/11/13 13:56:18;;;;;;;;;;;;;;;7.27;72.18;100229.75;4370829;32;33319;-88
2021/11/13 13:58:45;;;;;;;;;;;;;;;7.04;72.89;100231.13;4383572;32;33379;-88